Weather at Hokksund Airfield

Public forecast

Using degrees Celsius for public forecast. Weather courtesy of forecast.io.

Closest aviation weather report (METAR) to Hokksund Airfield

Report is more than 6 hours old.

Closest report is Notodden Airport, 24.4 nm (45.2 km) WSW.

2022/11/14 15:20 (retrieved 2 years ago)

ENNO 141520Z 00000KT 9999 BKN015 07/05 Q1022

Closest aviation forecast (TAF) to Hokksund Airfield

Forecast is more than 12 hours old.

Closest forecast is Moss Airport, Rygge, 34.9 nm (64.6 km) SE.

2023/02/22 18:39 (retrieved 1 year ago)

TAF TAF ENRY 221700Z 2218/2318 16014KT 9000 -RASN SCT012 BKN020 BECMG 2218/2219 4000 -RASN BR SCT003 BKN012 TEMPO 2219/2301 1200 SNRA BR VV003 TEMPO 2301/2308 1200 RADZ BR OVC003 BECMG 2308/2311 01012KT 9999 NSW SCT020